createdAt,value
2023-05-14T00:01:00.714Z,9.93
2023-05-14T00:03:27.396Z,9.75
2023-05-14T00:05:54.042Z,9.82
2023-05-14T00:08:20.624Z,9.81
2023-05-14T00:10:47.017Z,9.77
2023-05-14T00:13:13.481Z,9.69
2023-05-14T00:15:40.153Z,9.69
2023-05-14T00:18:07.134Z,9.81
2023-05-14T00:20:33.721Z,9.80
2023-05-14T00:23:00.653Z,9.84
2023-05-14T00:25:28.069Z,9.85
2023-05-14T00:27:54.606Z,9.98
2023-05-14T00:30:21.128Z,10.03
2023-05-14T00:32:47.805Z,10.03
2023-05-14T00:35:14.323Z,10.11
2023-05-14T00:37:40.716Z,10.11
2023-05-14T00:40:08.622Z,10.08
2023-05-14T00:42:35.162Z,9.96
2023-05-14T00:45:01.602Z,10.11
2023-05-14T00:47:28.258Z,10.02
2023-05-14T00:49:54.822Z,9.94
2023-05-14T00:52:21.657Z,10.09
2023-05-14T00:54:49.008Z,10.04
2023-05-14T00:57:16.264Z,10.13
2023-05-14T00:59:42.807Z,10.18
2023-05-14T01:02:09.339Z,10.01
2023-05-14T01:04:35.934Z,10.11
2023-05-14T01:07:13.832Z,10.16
2023-05-14T01:09:44.498Z,10.19
2023-05-14T01:12:32.740Z,10.13
2023-05-14T01:15:21.086Z,10.05
2023-05-14T01:17:56.779Z,10.17
2023-05-14T01:20:23.754Z,10.00
2023-05-14T01:22:50.487Z,9.99
2023-05-14T01:25:16.937Z,10.17
2023-05-14T01:27:59.206Z,10.18
2023-05-14T01:30:34.047Z,10.13
2023-05-14T01:33:03.572Z,10.22
2023-05-14T01:35:30.834Z,10.19
2023-05-14T01:38:00.509Z,10.19
2023-05-14T01:40:27.506Z,10.06
2023-05-14T01:42:55.313Z,10.21
2023-05-14T01:45:22.660Z,10.22
2023-05-14T01:47:49.530Z,10.20
2023-05-14T01:50:16.339Z,10.12
2023-05-14T01:52:43.162Z,10.21
2023-05-14T01:55:10.160Z,10.19
2023-05-14T01:57:36.783Z,10.27
2023-05-14T02:00:04.329Z,10.26
2023-05-14T02:02:40.676Z,10.03
2023-05-14T02:05:10.396Z,10.13
2023-05-14T02:07:36.897Z,10.20
2023-05-14T02:10:03.712Z,10.24
2023-05-14T02:12:30.378Z,10.23
2023-05-14T02:14:56.758Z,10.27
2023-05-14T02:17:26.407Z,10.18
2023-05-14T02:19:52.995Z,10.28
2023-05-14T02:22:19.354Z,10.23
2023-05-14T02:24:45.967Z,10.21
2023-05-14T02:27:13.268Z,10.25
2023-05-14T02:29:39.875Z,10.17
2023-05-14T02:32:06.873Z,10.20
2023-05-14T02:34:34.498Z,10.24
2023-05-14T02:37:01.223Z,10.35
2023-05-14T02:39:27.708Z,10.37
2023-05-14T02:41:54.150Z,10.28
2023-05-14T02:44:20.645Z,10.24
2023-05-14T02:46:47.874Z,10.33
2023-05-14T02:49:14.617Z,10.28
2023-05-14T02:51:41.256Z,10.17
2023-05-14T02:54:07.702Z,10.24
2023-05-14T02:56:34.210Z,10.25
2023-05-14T02:59:00.628Z,10.25
2023-05-14T03:01:27.700Z,10.01
2023-05-14T03:03:54.613Z,10.17
2023-05-14T03:06:20.977Z,10.21
2023-05-14T03:08:47.600Z,10.09
2023-05-14T03:11:14.007Z,9.94
2023-05-14T03:13:40.535Z,9.78
2023-05-14T03:16:07.053Z,10.01
2023-05-14T03:18:34.804Z,9.80
2023-05-14T03:21:01.530Z,9.95
2023-05-14T03:23:28.061Z,9.93
2023-05-14T03:25:54.458Z,9.89
2023-05-14T03:28:20.940Z,9.86
2023-05-14T03:30:47.521Z,9.92
2023-05-14T03:33:14.050Z,9.90
2023-05-14T03:35:40.455Z,9.95
2023-05-14T03:38:07.497Z,9.81
2023-05-14T03:40:34.388Z,9.77
2023-05-14T03:43:00.791Z,9.94
2023-05-14T03:45:28.675Z,9.92
2023-05-14T03:47:55.227Z,9.95
2023-05-14T03:50:25.351Z,9.97
2023-05-14T03:52:52.712Z,9.89
2023-05-14T03:55:19.912Z,9.73
2023-05-14T03:57:47.654Z,9.92
2023-05-14T04:00:14.805Z,9.72
2023-05-14T04:02:44.245Z,9.79
2023-05-14T04:05:11.120Z,9.63
2023-05-14T04:07:37.722Z,9.73
2023-05-14T04:10:04.807Z,9.63
2023-05-14T04:12:34.022Z,9.90
2023-05-14T04:15:01.054Z,11.17
2023-05-14T04:17:27.648Z,11.88
2023-05-14T04:19:54.164Z,10.99
2023-05-14T04:22:20.636Z,10.72
2023-05-14T04:24:47.065Z,10.35
2023-05-14T04:27:22.520Z,10.07
2023-05-14T04:29:50.353Z,9.94
2023-05-14T04:32:17.561Z,10.23
2023-05-14T04:34:44.246Z,9.99
2023-05-14T04:37:10.722Z,9.84
2023-05-14T04:39:38.483Z,10.06
2023-05-14T04:42:06.582Z,9.72
2023-05-14T04:44:34.536Z,9.93
2023-05-14T04:47:01.002Z,10.15
2023-05-14T04:49:27.579Z,10.40
2023-05-14T04:51:54.121Z,10.10
2023-05-14T04:54:20.684Z,10.49
2023-05-14T04:56:47.742Z,10.44
2023-05-14T04:59:14.247Z,10.80
2023-05-14T05:01:40.714Z,10.75
2023-05-14T05:04:07.275Z,10.65
2023-05-14T05:06:33.698Z,11.11
2023-05-14T05:09:02.007Z,11.36
2023-05-14T05:11:28.822Z,11.57
2023-05-14T05:13:55.232Z,11.68
2023-05-14T05:16:21.760Z,11.94
2023-05-14T05:18:48.357Z,12.14
2023-05-14T05:21:14.834Z,12.33
2023-05-14T05:23:41.302Z,12.48
2023-05-14T05:26:07.798Z,12.59
2023-05-14T05:28:34.256Z,12.56
2023-05-14T05:31:00.782Z,12.67
2023-05-14T05:33:27.242Z,13.18
2023-05-14T05:35:53.704Z,13.25
2023-05-14T05:38:20.095Z,16.29
2023-05-14T05:40:46.582Z,17.12
2023-05-14T05:43:13.871Z,17.25
2023-05-14T05:45:40.886Z,15.63
2023-05-14T05:48:07.451Z,15.32
2023-05-14T05:50:33.953Z,14.95
2023-05-14T05:53:00.547Z,14.53
2023-05-14T05:55:28.761Z,14.03
2023-05-14T05:57:55.625Z,13.59
2023-05-14T06:02:48.740Z,13.54
2023-05-14T06:05:15.313Z,13.69
2023-05-14T06:07:41.862Z,13.49
2023-05-14T06:10:08.535Z,13.02
2023-05-14T06:12:35.292Z,12.91
2023-05-14T06:15:01.841Z,13.14
2023-05-14T06:17:28.294Z,14.09
2023-05-14T06:19:54.819Z,13.91
2023-05-14T06:22:21.278Z,15.28
2023-05-14T06:24:48.145Z,16.63
2023-05-14T06:27:14.865Z,16.56
2023-05-14T06:29:41.410Z,16.16
2023-05-14T06:32:08.070Z,15.64
2023-05-14T06:34:34.671Z,16.08
2023-05-14T06:37:02.808Z,16.83
2023-05-14T06:39:29.481Z,17.12
2023-05-14T06:41:55.938Z,17.10
2023-05-14T06:44:23.276Z,16.81
2023-05-14T06:46:49.741Z,16.89
2023-05-14T06:49:16.453Z,16.05
2023-05-14T06:51:43.213Z,16.31
2023-05-14T06:54:09.582Z,16.02
2023-05-14T06:56:36.095Z,15.92
2023-05-14T06:59:02.758Z,17.04
2023-05-14T07:01:29.354Z,16.76
2023-05-14T07:03:56.294Z,16.82
2023-05-14T07:06:23.684Z,16.50
2023-05-14T07:08:50.165Z,15.78
2023-05-14T07:11:16.622Z,15.57
2023-05-14T07:13:43.209Z,15.60
2023-05-14T07:16:10.300Z,15.10
2023-05-14T07:18:36.941Z,14.93
2023-05-14T07:21:06.485Z,14.75
2023-05-14T07:23:36.112Z,14.61
2023-05-14T07:26:03.433Z,14.74
2023-05-14T07:28:29.995Z,15.00
2023-05-14T07:30:56.558Z,14.79
2023-05-14T07:33:24.265Z,15.01
2023-05-14T07:35:50.939Z,14.64
2023-05-14T07:38:17.666Z,14.60
2023-05-14T07:40:44.173Z,14.96
2023-05-14T07:43:10.767Z,14.48
2023-05-14T07:45:38.954Z,14.32
2023-05-14T07:48:05.634Z,14.47
2023-05-14T07:50:32.356Z,15.00
2023-05-14T07:52:58.800Z,14.29
2023-05-14T07:55:25.901Z,14.86
2023-05-14T07:57:52.358Z,14.79
2023-05-14T08:00:18.979Z,15.29
2023-05-14T08:02:45.633Z,15.03
2023-05-14T08:05:12.191Z,15.04
2023-05-14T08:07:38.612Z,15.24
2023-05-14T08:10:06.908Z,15.36
2023-05-14T08:12:33.542Z,15.31
2023-05-14T08:14:59.987Z,15.65
2023-05-14T08:17:27.515Z,15.55
2023-05-14T08:19:54.237Z,15.53
2023-05-14T08:22:21.759Z,15.97
2023-05-14T08:24:48.871Z,16.11
2023-05-14T08:27:16.568Z,16.66
2023-05-14T08:29:43.159Z,16.24
2023-05-14T08:32:19.756Z,16.13
2023-05-14T08:34:49.609Z,16.87
2023-05-14T08:37:15.980Z,17.45
2023-05-14T08:39:42.447Z,18.04
2023-05-14T08:42:10.578Z,16.19
2023-05-14T08:44:45.518Z,16.28
2023-05-14T08:47:15.378Z,16.31
2023-05-14T08:49:44.835Z,16.67
2023-05-14T08:52:12.094Z,16.77
2023-05-14T08:54:40.024Z,17.47
2023-05-14T08:57:10.571Z,16.38
2023-05-14T08:59:37.447Z,17.44
2023-05-14T09:28:28.046Z,16.01
2023-05-14T09:30:55.134Z,17.00
2023-05-14T09:33:29.210Z,17.01
2023-05-14T09:36:01.322Z,16.10
2023-05-14T09:38:29.826Z,16.85
2023-05-14T09:40:57.408Z,16.19
2023-05-14T09:43:23.968Z,16.03
2023-05-14T09:45:50.953Z,16.49
2023-05-14T09:48:17.586Z,16.04
2023-05-14T09:50:46.119Z,15.90
2023-05-14T09:53:14.172Z,15.51
2023-05-14T09:55:41.704Z,15.41
2023-05-14T09:58:08.194Z,15.72
2023-05-14T10:00:35.705Z,16.45
2023-05-14T10:03:07.998Z,15.06
2023-05-14T10:05:41.019Z,15.96
2023-05-14T10:08:12.572Z,16.01
2023-05-14T10:10:39.376Z,15.88
2023-05-14T10:13:14.577Z,15.83
2023-05-14T10:15:49.119Z,16.33
2023-05-14T10:18:22.972Z,16.38
2023-05-14T10:21:01.132Z,17.39
2023-05-14T10:23:27.865Z,17.05
2023-05-14T10:25:54.804Z,17.36
2023-05-14T10:28:21.399Z,17.93
2023-05-14T10:30:50.352Z,17.53
2023-05-14T10:33:18.490Z,17.75
2023-05-14T10:36:01.361Z,18.85
2023-05-14T10:38:29.503Z,19.37
2023-05-14T10:41:04.468Z,18.56
2023-05-14T10:43:35.909Z,18.36
2023-05-14T10:46:03.008Z,19.28
2023-05-14T10:48:29.726Z,18.59
2023-05-14T10:50:57.512Z,19.32
2023-05-14T10:53:33.568Z,19.50
2023-05-14T10:56:08.318Z,18.18
2023-05-14T10:58:37.379Z,19.17
2023-05-14T11:01:06.653Z,18.12
2023-05-14T11:03:39.758Z,18.94
2023-05-14T11:06:07.569Z,18.33
2023-05-14T11:08:34.126Z,18.45
2023-05-14T11:11:00.893Z,18.59
2023-05-14T11:13:27.995Z,18.13
2023-05-14T11:15:55.550Z,17.78
2023-05-14T11:18:33.407Z,18.03
2023-05-14T11:21:01.214Z,17.82
2023-05-14T11:23:28.654Z,17.66
2023-05-14T11:25:56.687Z,17.65
2023-05-14T11:28:24.463Z,18.17
2023-05-14T11:30:51.526Z,18.02
2023-05-14T11:33:19.342Z,18.52
2023-05-14T11:35:47.108Z,18.43
2023-05-14T11:38:15.475Z,18.78
2023-05-14T11:40:42.017Z,19.40
2023-05-14T11:43:08.728Z,19.00
2023-05-14T11:45:36.409Z,18.39
2023-05-14T11:48:11.481Z,17.69
2023-05-14T11:50:38.098Z,18.30
2023-05-14T11:53:04.592Z,18.14
2023-05-14T11:55:33.744Z,18.17
2023-05-14T11:58:00.334Z,17.45
2023-05-14T12:00:27.165Z,17.79
2023-05-14T12:02:54.533Z,18.47
2023-05-14T12:05:21.243Z,18.89
2023-05-14T12:07:47.958Z,18.27
2023-05-14T12:10:15.160Z,18.48
2023-05-14T12:12:46.090Z,18.07
2023-05-14T12:15:14.122Z,17.55
2023-05-14T12:17:41.283Z,17.67
2023-05-14T12:20:12.404Z,18.36
2023-05-14T12:22:39.464Z,17.97
2023-05-14T12:25:13.343Z,18.86
2023-05-14T12:27:40.199Z,18.80
2023-05-14T12:32:40.414Z,19.03
2023-05-14T12:35:07.206Z,19.15
2023-05-14T12:37:34.172Z,19.17
2023-05-14T12:40:00.713Z,17.78
2023-05-14T12:42:27.427Z,17.88
2023-05-14T12:44:54.028Z,18.52
2023-05-14T12:47:20.989Z,17.98
2023-05-14T12:49:47.630Z,17.26
2023-05-14T12:54:43.668Z,16.61
2023-05-14T12:57:10.360Z,16.99
2023-05-14T12:59:37.028Z,16.61
2023-05-14T13:02:03.809Z,16.36
2023-05-14T13:04:30.425Z,15.70
2023-05-14T13:06:57.041Z,16.20
2023-05-14T13:09:23.562Z,16.10
2023-05-14T13:11:50.058Z,15.25
2023-05-14T13:14:17.802Z,15.74
2023-05-14T13:16:44.954Z,15.36
2023-05-14T13:19:11.693Z,15.81
2023-05-14T13:21:38.388Z,15.68
2023-05-14T13:24:05.228Z,15.97
2023-05-14T13:26:31.932Z,15.79
2023-05-14T13:28:58.537Z,15.79
2023-05-14T13:31:25.135Z,14.91
2023-05-14T13:33:51.741Z,14.66
2023-05-14T13:36:18.251Z,15.04
2023-05-14T13:38:48.433Z,14.64
2023-05-14T13:41:14.989Z,14.10
2023-05-14T13:43:41.461Z,14.32
2023-05-14T13:46:08.050Z,14.61
2023-05-14T13:48:36.439Z,15.28
2023-05-14T13:51:03.245Z,14.93
2023-05-14T13:53:30.542Z,14.66
2023-05-14T13:55:58.414Z,14.88
2023-05-14T13:58:25.598Z,14.96
2023-05-14T14:00:52.888Z,15.01
2023-05-14T14:03:19.735Z,14.96
2023-05-14T14:05:46.347Z,15.18
2023-05-14T14:08:23.452Z,15.60
2023-05-14T14:10:51.104Z,15.67
2023-05-14T14:13:17.644Z,15.69
2023-05-14T14:15:44.383Z,15.86
2023-05-14T14:18:11.088Z,16.26
2023-05-14T14:20:38.188Z,15.71
2023-05-14T14:23:04.733Z,15.91
2023-05-14T14:25:31.183Z,16.01
2023-05-14T14:27:57.796Z,16.29
2023-05-14T14:30:24.319Z,16.10
2023-05-14T14:32:50.875Z,16.41
2023-05-14T14:35:18.885Z,16.31
2023-05-14T14:37:49.240Z,16.54
2023-05-14T14:40:16.845Z,16.52
2023-05-14T14:42:43.724Z,16.60
2023-05-14T14:45:11.226Z,16.50
2023-05-14T14:47:37.842Z,16.50
2023-05-14T14:50:05.157Z,16.95
2023-05-14T14:52:31.738Z,16.74
2023-05-14T14:54:58.265Z,17.12
2023-05-14T14:57:24.903Z,16.74
2023-05-14T14:59:51.409Z,16.42
2023-05-14T15:02:17.925Z,16.71
2023-05-14T15:04:44.466Z,16.83
2023-05-14T15:07:11.169Z,16.91
2023-05-14T15:09:37.751Z,16.43
2023-05-14T15:12:05.046Z,16.40
2023-05-14T15:14:31.566Z,15.95
2023-05-14T15:16:58.156Z,16.49
2023-05-14T15:19:24.806Z,16.24
2023-05-14T15:21:51.841Z,16.82
2023-05-14T15:24:18.520Z,16.45
2023-05-14T15:26:45.102Z,16.85
2023-05-14T15:29:11.730Z,16.89
2023-05-14T15:31:38.497Z,17.34
2023-05-14T15:34:05.144Z,16.82
2023-05-14T15:36:32.259Z,16.83
2023-05-14T15:38:59.524Z,16.12
2023-05-14T15:41:28.607Z,16.16
2023-05-14T15:43:56.046Z,16.14
2023-05-14T15:46:23.669Z,15.81
2023-05-14T15:48:50.352Z,15.41
2023-05-14T15:51:16.855Z,15.23
2023-05-14T15:53:43.283Z,15.31
2023-05-14T15:56:10.124Z,15.04
2023-05-14T15:58:36.681Z,14.66
2023-05-14T16:01:03.175Z,15.09
2023-05-14T16:03:29.953Z,14.82
2023-05-14T16:05:56.777Z,14.91
2023-05-14T16:08:23.303Z,15.08
2023-05-14T16:10:49.767Z,14.80
2023-05-14T16:13:16.319Z,14.55
2023-05-14T16:15:42.986Z,14.27
2023-05-14T16:18:09.742Z,14.16
2023-05-14T16:20:36.299Z,14.39
2023-05-14T16:23:02.773Z,14.28
2023-05-14T16:25:30.785Z,14.56
2023-05-14T16:27:57.448Z,14.18
2023-05-14T16:30:24.406Z,14.19
2023-05-14T16:32:51.137Z,14.69
2023-05-14T16:35:17.598Z,14.57
2023-05-14T16:37:44.087Z,14.32
2023-05-14T16:40:11.779Z,14.57
2023-05-14T16:42:38.588Z,14.20
2023-05-14T16:45:05.470Z,14.36
2023-05-14T16:47:32.046Z,14.58
2023-05-14T16:49:58.608Z,14.56
2023-05-14T16:52:25.020Z,14.22
2023-05-14T16:54:51.529Z,14.17
2023-05-14T16:57:18.016Z,14.43
2023-05-14T16:59:44.532Z,14.54
2023-05-14T17:02:10.939Z,14.49
2023-05-14T17:04:40.879Z,14.49
2023-05-14T17:07:07.719Z,14.31
2023-05-14T17:09:34.275Z,14.30
2023-05-14T17:12:00.697Z,14.42
2023-05-14T17:14:27.679Z,14.14
2023-05-14T17:16:54.434Z,14.60
2023-05-14T17:19:21.071Z,14.18
2023-05-14T17:21:47.604Z,14.28
2023-05-14T17:24:14.055Z,14.22
2023-05-14T17:26:40.659Z,13.98
2023-05-14T17:29:07.161Z,13.95
2023-05-14T17:31:33.640Z,14.05
2023-05-14T17:34:00.691Z,13.86
2023-05-14T17:36:28.635Z,13.92
2023-05-14T17:38:55.257Z,13.97
2023-05-14T17:41:21.711Z,14.03
2023-05-14T17:43:48.488Z,13.95
2023-05-14T17:46:15.111Z,13.97
2023-05-14T17:48:41.709Z,13.83
2023-05-14T17:51:08.161Z,13.80
2023-05-14T17:53:34.816Z,13.64
2023-05-14T17:56:01.555Z,13.72
2023-05-14T17:58:28.255Z,13.36
2023-05-14T18:00:54.820Z,13.29
2023-05-14T18:03:21.560Z,13.09
2023-05-14T18:05:48.212Z,13.18
2023-05-14T18:08:15.334Z,13.02
2023-05-14T18:10:41.905Z,12.88
2023-05-14T18:13:08.390Z,12.71
2023-05-14T18:15:36.424Z,12.72
2023-05-14T18:18:03.123Z,12.85
2023-05-14T18:20:29.624Z,12.76
2023-05-14T18:22:56.088Z,12.78
2023-05-14T18:25:23.017Z,12.60
2023-05-14T18:27:49.982Z,12.52
2023-05-14T18:30:16.707Z,12.39
2023-05-14T18:32:44.600Z,12.32
2023-05-14T18:35:11.771Z,12.19
2023-05-14T18:37:38.405Z,12.05
2023-05-14T18:40:06.959Z,11.94
2023-05-14T18:42:34.463Z,11.91
2023-05-14T18:45:02.164Z,11.88
2023-05-14T18:47:28.771Z,11.82
2023-05-14T18:49:58.105Z,11.73
2023-05-14T18:52:26.136Z,11.64
2023-05-14T18:54:53.797Z,11.52
2023-05-14T18:57:21.119Z,11.57
2023-05-14T18:59:47.673Z,11.44
2023-05-14T19:02:14.155Z,11.34
2023-05-14T19:04:51.189Z,11.27
2023-05-14T19:07:18.196Z,11.16
2023-05-14T19:09:45.677Z,11.18
2023-05-14T19:12:12.637Z,11.08
2023-05-14T19:14:39.237Z,11.03
2023-05-14T19:17:05.847Z,11.01
2023-05-14T19:19:32.648Z,10.88
2023-05-14T19:21:59.268Z,10.78
2023-05-14T19:24:25.886Z,10.84
2023-05-14T19:26:52.648Z,10.74
2023-05-14T19:29:19.193Z,10.59
2023-05-14T19:31:45.924Z,10.53
2023-05-14T19:34:12.552Z,10.53
2023-05-14T19:36:39.048Z,10.57
2023-05-14T19:39:05.982Z,10.47
2023-05-14T19:41:32.509Z,10.37
2023-05-14T19:43:59.050Z,10.42
2023-05-14T19:46:26.186Z,10.20
2023-05-14T19:48:52.870Z,10.17
2023-05-14T19:51:19.794Z,10.24
2023-05-14T19:53:46.438Z,10.32
2023-05-14T19:56:12.913Z,10.30
2023-05-14T19:58:39.480Z,10.26
2023-05-14T20:01:05.944Z,10.33
2023-05-14T20:03:33.443Z,10.18
2023-05-14T20:06:00.206Z,10.13
2023-05-14T20:08:29.098Z,10.16
2023-05-14T20:10:55.779Z,10.09
2023-05-14T20:13:24.423Z,10.02
2023-05-14T20:15:51.834Z,10.01
2023-05-14T20:18:18.381Z,10.00
2023-05-14T20:20:44.808Z,10.09
2023-05-14T20:23:11.348Z,10.04
2023-05-14T20:25:37.797Z,9.95
2023-05-14T20:28:04.515Z,9.94
2023-05-14T20:30:31.133Z,9.88
2023-05-14T20:32:58.031Z,9.93
2023-05-14T20:35:24.715Z,9.93
2023-05-14T20:37:51.434Z,9.88
2023-05-14T20:40:18.133Z,9.86
2023-05-14T20:42:44.938Z,9.85
2023-05-14T20:45:11.578Z,9.88
2023-05-14T20:47:38.296Z,9.89
2023-05-14T20:50:05.376Z,9.84
2023-05-14T20:52:31.963Z,9.74
2023-05-14T20:55:01.377Z,9.75
2023-05-14T20:57:28.607Z,9.82
2023-05-14T20:59:55.123Z,9.85
2023-05-14T21:02:21.653Z,9.91
2023-05-14T21:04:48.363Z,9.94
2023-05-14T21:07:14.977Z,9.98
2023-05-14T21:09:41.496Z,10.04
2023-05-14T21:12:08.499Z,10.04
2023-05-14T21:14:35.124Z,9.94
2023-05-14T21:17:01.674Z,9.89
2023-05-14T21:19:28.083Z,9.97
2023-05-14T21:21:54.625Z,9.92
2023-05-14T21:24:21.194Z,9.94
2023-05-14T21:26:47.781Z,9.91
2023-05-14T21:29:14.269Z,9.98
2023-05-14T21:31:41.007Z,9.88
2023-05-14T21:34:07.682Z,10.04
2023-05-14T21:36:34.285Z,10.05
2023-05-14T21:39:00.971Z,10.09
2023-05-14T21:41:27.561Z,10.07
2023-05-14T21:43:54.002Z,10.12
2023-05-14T21:46:20.628Z,10.07
2023-05-14T21:48:47.304Z,10.05
2023-05-14T21:51:13.966Z,10.06
2023-05-14T21:53:40.510Z,10.13
2023-05-14T21:56:08.197Z,10.07
2023-05-14T21:58:35.744Z,10.16
2023-05-14T22:18:20.954Z,9.33
2023-05-14T22:20:47.482Z,9.47
2023-05-14T22:23:14.209Z,9.61
2023-05-14T22:25:40.809Z,9.66
2023-05-14T22:28:07.460Z,9.78
2023-05-14T22:30:34.108Z,9.86
2023-05-14T22:33:00.811Z,9.97
2023-05-14T22:35:27.531Z,10.03
2023-05-14T22:37:54.246Z,10.09
2023-05-14T22:40:20.670Z,10.14
2023-05-14T22:42:47.219Z,10.16
2023-05-14T22:45:13.725Z,10.16
2023-05-14T22:47:40.598Z,10.18
2023-05-14T22:50:11.457Z,10.14
2023-05-14T22:52:39.167Z,10.19
2023-05-14T22:55:06.476Z,10.08
2023-05-14T22:57:35.982Z,9.99
2023-05-14T23:00:04.560Z,9.92
2023-05-14T23:02:31.189Z,9.99
2023-05-14T23:04:57.822Z,10.10
2023-05-14T23:07:24.268Z,10.04
2023-05-14T23:09:50.830Z,10.07
2023-05-14T23:12:18.553Z,10.09
2023-05-14T23:14:45.017Z,10.08
2023-05-14T23:17:11.676Z,10.14
2023-05-14T23:19:38.490Z,10.11
2023-05-14T23:22:05.119Z,10.16
2023-05-14T23:24:31.688Z,10.13
2023-05-14T23:26:58.131Z,10.13
2023-05-14T23:29:24.726Z,10.14
2023-05-14T23:31:51.462Z,10.00
2023-05-14T23:34:18.454Z,10.06
2023-05-14T23:36:45.551Z,10.01
2023-05-14T23:39:12.372Z,10.06
2023-05-14T23:41:38.916Z,10.09
2023-05-14T23:44:05.882Z,10.13
2023-05-14T23:46:32.593Z,10.14
2023-05-14T23:48:59.519Z,10.09
2023-05-14T23:51:27.512Z,10.04
2023-05-14T23:53:58.233Z,9.94
2023-05-14T23:56:26.123Z,9.84
2023-05-14T23:58:52.981Z,9.67
